createdAt,value
2022-11-16T00:00:21.491Z,9.70
2022-11-16T00:01:21.463Z,12.40
2022-11-16T00:02:21.536Z,11.20
2022-11-16T00:03:21.422Z,10.50
2022-11-16T00:04:21.419Z,10.40
2022-11-16T00:05:25.659Z,10.10
2022-11-16T00:06:23.423Z,10.30
2022-11-16T00:07:21.430Z,10.30
2022-11-16T00:08:21.387Z,11.30
2022-11-16T00:09:21.394Z,10.50
2022-11-16T00:10:21.371Z,12.40
2022-11-16T00:11:21.504Z,13.40
2022-11-16T00:12:21.371Z,11.20
2022-11-16T00:13:21.360Z,11.30
2022-11-16T00:14:21.365Z,10.90
2022-11-16T00:15:21.346Z,9.50
2022-11-16T00:16:21.339Z,12.40
2022-11-16T00:17:21.354Z,12.20
2022-11-16T00:18:21.327Z,9.40
2022-11-16T00:19:21.358Z,10.10
2022-11-16T00:20:21.343Z,9.40
2022-11-16T00:21:21.303Z,8.90
2022-11-16T00:22:21.302Z,13.70
2022-11-16T00:23:21.293Z,9.70
2022-11-16T00:24:21.298Z,9.90
2022-11-16T00:25:21.286Z,12.20
2022-11-16T00:26:21.282Z,9.30
2022-11-16T00:27:21.296Z,11.80
2022-11-16T00:28:21.256Z,10.40
2022-11-16T00:29:21.251Z,10.90
2022-11-16T00:30:21.244Z,12.40
2022-11-16T00:31:21.246Z,10.70
2022-11-16T00:32:21.249Z,11.00
2022-11-16T00:33:21.226Z,10.00
2022-11-16T00:34:21.255Z,10.10
2022-11-16T00:35:21.226Z,12.00
2022-11-16T00:36:21.206Z,10.50
2022-11-16T00:37:21.202Z,12.80
2022-11-16T00:38:21.209Z,11.60
2022-11-16T00:39:21.258Z,12.00
2022-11-16T00:40:21.191Z,10.60
2022-11-16T00:41:21.156Z,11.00
2022-11-16T00:42:21.163Z,12.10
2022-11-16T00:43:21.178Z,13.40
2022-11-16T00:44:21.148Z,13.10
2022-11-16T00:45:21.183Z,11.40
2022-11-16T00:46:21.143Z,13.10
2022-11-16T00:47:21.138Z,11.70
2022-11-16T00:48:21.126Z,12.40
2022-11-16T00:49:21.110Z,12.00
2022-11-16T00:50:21.132Z,12.70
2022-11-16T00:51:21.084Z,15.70
2022-11-16T00:52:22.115Z,13.60
2022-11-16T00:53:21.091Z,14.40
2022-11-16T00:54:21.092Z,14.20
2022-11-16T00:55:21.073Z,17.70
2022-11-16T00:56:21.090Z,14.50
2022-11-16T00:57:21.090Z,14.40
2022-11-16T00:58:21.061Z,15.20
2022-11-16T00:59:21.060Z,16.30
2022-11-16T01:00:21.039Z,15.40
2022-11-16T01:01:21.149Z,14.70
2022-11-16T01:02:21.059Z,15.80
2022-11-16T01:03:21.027Z,14.90
2022-11-16T01:04:21.015Z,16.20
2022-11-16T01:05:21.028Z,14.40
2022-11-16T01:06:21.002Z,16.80
2022-11-16T01:07:21.075Z,15.90
2022-11-16T01:08:21.028Z,16.80
2022-11-16T01:09:21.019Z,13.50
2022-11-16T01:10:20.978Z,13.20
2022-11-16T01:11:21.005Z,15.00
2022-11-16T01:12:21.695Z,15.40
2022-11-16T01:13:21.017Z,15.80
2022-11-16T01:14:20.966Z,18.40
2022-11-16T01:15:20.961Z,18.00
2022-11-16T01:16:20.938Z,19.30
2022-11-16T01:17:20.937Z,14.10
2022-11-16T01:18:20.939Z,15.80
2022-11-16T01:19:20.948Z,16.40
2022-11-16T01:20:20.927Z,17.40
2022-11-16T01:21:20.910Z,17.00
2022-11-16T01:22:21.891Z,15.90
2022-11-16T01:23:20.882Z,17.40
2022-11-16T01:24:20.895Z,18.60
2022-11-16T01:25:20.880Z,18.40
2022-11-16T01:26:20.872Z,21.30
2022-11-16T01:27:20.890Z,19.90
2022-11-16T01:28:20.854Z,13.20
2022-11-16T01:29:20.866Z,15.90
2022-11-16T01:30:20.838Z,15.30
2022-11-16T01:31:20.843Z,18.40
2022-11-16T01:32:20.928Z,24.90
2022-11-16T01:33:20.827Z,21.50
2022-11-16T01:34:20.818Z,18.30
2022-11-16T01:35:20.829Z,22.90
2022-11-16T01:36:20.802Z,25.30
2022-11-16T01:37:21.691Z,22.60
2022-11-16T01:38:20.781Z,18.30
2022-11-16T01:39:20.781Z,18.40
2022-11-16T01:40:20.773Z,14.90
2022-11-16T01:41:20.773Z,17.60
2022-11-16T01:42:20.807Z,15.60
2022-11-16T01:43:20.765Z,21.60
2022-11-16T01:44:20.757Z,13.80
2022-11-16T01:45:20.755Z,16.00
2022-11-16T01:46:20.737Z,16.10
2022-11-16T01:47:20.725Z,13.80
2022-11-16T01:48:20.782Z,16.70
2022-11-16T01:49:20.741Z,13.70
2022-11-16T01:50:20.707Z,14.80
2022-11-16T01:51:20.697Z,15.90
2022-11-16T01:52:21.729Z,16.00
2022-11-16T01:53:20.686Z,15.50
2022-11-16T01:54:20.702Z,19.70
2022-11-16T01:55:20.694Z,14.90
2022-11-16T01:56:20.691Z,16.10
2022-11-16T01:57:20.665Z,14.30
2022-11-16T01:58:20.657Z,14.30
2022-11-16T01:59:20.665Z,15.00
2022-11-16T02:00:20.650Z,17.60
2022-11-16T02:01:20.696Z,14.40
2022-11-16T02:02:20.649Z,16.30
2022-11-16T02:03:20.629Z,16.60
2022-11-16T02:04:20.630Z,16.70
2022-11-16T02:05:20.629Z,13.60
2022-11-16T02:06:20.618Z,16.70
2022-11-16T02:07:20.696Z,21.10
2022-11-16T02:08:20.585Z,25.60
2022-11-16T02:09:20.592Z,23.30
2022-11-16T02:10:20.593Z,24.10
2022-11-16T02:11:20.569Z,19.00
2022-11-16T02:12:20.594Z,16.00
2022-11-16T02:13:20.569Z,12.80
2022-11-16T02:14:20.565Z,18.10
2022-11-16T02:15:20.560Z,20.10
2022-11-16T02:16:20.651Z,21.20
2022-11-16T02:17:20.539Z,21.20
2022-11-16T02:18:20.563Z,18.10
2022-11-16T02:19:20.527Z,21.30
2022-11-16T02:20:20.520Z,23.80
2022-11-16T02:21:20.561Z,28.60
2022-11-16T02:22:20.500Z,29.20
2022-11-16T02:23:20.508Z,24.40
2022-11-16T02:24:20.488Z,19.80
2022-11-16T02:25:20.507Z,17.20
2022-11-16T02:26:20.589Z,14.90
2022-11-16T02:27:20.491Z,17.70
2022-11-16T02:28:20.471Z,20.40
2022-11-16T02:29:20.456Z,19.20
2022-11-16T02:30:20.472Z,21.00
2022-11-16T02:31:20.494Z,22.80
2022-11-16T02:32:20.443Z,22.40
2022-11-16T02:33:20.432Z,21.10
2022-11-16T02:34:20.423Z,24.80
2022-11-16T02:35:20.428Z,25.90
2022-11-16T02:36:20.451Z,22.50
2022-11-16T02:37:20.402Z,19.20
2022-11-16T02:38:20.400Z,19.30
2022-11-16T02:39:20.382Z,18.10
2022-11-16T02:40:20.393Z,18.10
2022-11-16T02:41:20.386Z,16.00
2022-11-16T02:42:20.374Z,21.10
2022-11-16T02:43:20.358Z,19.40
2022-11-16T02:44:20.354Z,19.70
2022-11-16T02:45:20.353Z,21.70
2022-11-16T02:46:20.353Z,17.20
2022-11-16T02:47:20.334Z,18.70
2022-11-16T02:48:20.324Z,15.50
2022-11-16T02:49:20.330Z,19.50
2022-11-16T02:50:20.326Z,16.80
2022-11-16T02:51:20.314Z,19.50
2022-11-16T02:52:20.302Z,17.90
2022-11-16T02:53:20.295Z,12.50
2022-11-16T02:54:20.289Z,13.80
2022-11-16T02:55:20.294Z,18.30
2022-11-16T02:56:20.287Z,14.60
2022-11-16T02:57:20.290Z,17.50
2022-11-16T02:58:20.278Z,16.90
2022-11-16T02:59:20.245Z,19.50
2022-11-16T03:00:20.261Z,13.90
2022-11-16T03:01:20.329Z,17.70
2022-11-16T03:02:20.255Z,14.00
2022-11-16T03:03:20.235Z,15.10
2022-11-16T03:04:20.223Z,17.80
2022-11-16T03:05:20.230Z,15.30
2022-11-16T03:06:20.222Z,12.50
2022-11-16T03:07:20.289Z,14.40
2022-11-16T03:08:20.203Z,14.10
2022-11-16T03:09:20.194Z,11.30
2022-11-16T03:10:20.195Z,12.50
2022-11-16T03:11:20.199Z,16.30
2022-11-16T03:12:52.201Z,12.40
2022-11-16T03:13:20.164Z,11.80
2022-11-16T03:14:20.160Z,18.80
2022-11-16T03:15:20.159Z,15.30
2022-11-16T03:16:20.273Z,14.00
2022-11-16T03:17:20.137Z,17.50
2022-11-16T03:18:20.136Z,17.20
2022-11-16T03:19:20.119Z,17.80
2022-11-16T03:20:20.113Z,17.80
2022-11-16T03:21:20.137Z,17.10
2022-11-16T03:22:21.106Z,16.00
2022-11-16T03:23:20.087Z,14.40
2022-11-16T03:24:20.086Z,15.20
2022-11-16T03:25:20.086Z,16.60
2022-11-16T03:26:20.086Z,15.90
2022-11-16T03:27:20.097Z,14.60
2022-11-16T03:28:20.062Z,18.90
2022-11-16T03:29:20.058Z,18.70
2022-11-16T03:30:23.373Z,17.30
2022-11-16T03:31:21.044Z,18.80
2022-11-16T03:32:20.061Z,16.60
2022-11-16T03:33:22.595Z,15.80
2022-11-16T03:34:21.261Z,14.20
2022-11-16T03:35:20.022Z,15.40
2022-11-16T03:36:20.013Z,13.10
2022-11-16T03:37:19.998Z,19.70
2022-11-16T03:38:20.021Z,16.60
2022-11-16T03:39:19.993Z,15.50
2022-11-16T03:40:19.983Z,16.10
2022-11-16T03:41:19.981Z,16.10
2022-11-16T03:42:20.013Z,12.00
2022-11-16T03:43:19.969Z,13.80
2022-11-16T03:44:19.951Z,16.80
2022-11-16T03:45:19.957Z,12.70
2022-11-16T03:46:19.940Z,18.10
2022-11-16T03:47:19.934Z,16.90
2022-11-16T03:48:19.936Z,15.60
2022-11-16T03:49:19.944Z,18.60
2022-11-16T03:50:19.936Z,16.90
2022-11-16T03:51:19.901Z,15.70
2022-11-16T03:52:20.678Z,14.60
2022-11-16T03:53:19.904Z,17.30
2022-11-16T03:54:19.897Z,14.70
2022-11-16T03:55:19.877Z,13.80
2022-11-16T03:56:19.877Z,14.00
2022-11-16T03:57:19.948Z,15.20
2022-11-16T03:58:19.848Z,16.70
2022-11-16T03:59:19.859Z,19.00
2022-11-16T04:00:19.843Z,12.60
2022-11-16T04:01:20.076Z,11.60
2022-11-16T04:02:19.850Z,13.10
2022-11-16T04:03:19.848Z,12.80
2022-11-16T04:04:19.823Z,12.30
2022-11-16T04:05:19.832Z,12.40
2022-11-16T04:06:19.828Z,12.60
2022-11-16T04:07:19.851Z,14.70
2022-11-16T04:08:19.788Z,12.80
2022-11-16T04:09:19.817Z,12.80
2022-11-16T04:10:19.776Z,13.30
2022-11-16T04:11:19.768Z,14.60
2022-11-16T04:12:19.783Z,14.20
2022-11-16T04:13:19.755Z,12.40
2022-11-16T04:14:19.756Z,12.80
2022-11-16T04:15:19.828Z,13.80
2022-11-16T04:16:19.747Z,12.50
2022-11-16T04:17:19.760Z,14.20
2022-11-16T04:18:19.737Z,12.60
2022-11-16T04:19:19.710Z,13.80
2022-11-16T04:20:19.717Z,13.30
2022-11-16T04:21:19.739Z,13.10
2022-11-16T04:22:19.709Z,14.00
2022-11-16T04:23:19.694Z,14.30
2022-11-16T04:24:19.723Z,14.30
2022-11-16T04:25:19.683Z,13.30
2022-11-16T04:26:19.670Z,14.90
2022-11-16T04:27:19.687Z,14.70
2022-11-16T04:28:19.654Z,13.40
2022-11-16T04:29:19.661Z,15.10
2022-11-16T04:30:19.659Z,13.60
2022-11-16T04:31:19.634Z,13.20
2022-11-16T04:32:19.639Z,17.20
2022-11-16T04:33:19.658Z,14.30
2022-11-16T04:34:19.630Z,16.00
2022-11-16T04:35:19.615Z,17.40
2022-11-16T04:36:20.853Z,15.00
2022-11-16T04:37:20.614Z,13.80
2022-11-16T04:38:19.614Z,13.80
2022-11-16T04:39:19.597Z,15.50
2022-11-16T04:40:19.610Z,14.00
2022-11-16T04:41:19.574Z,14.10
2022-11-16T04:42:19.570Z,15.30
2022-11-16T04:43:19.589Z,14.40
2022-11-16T04:44:19.566Z,15.20
2022-11-16T04:45:19.549Z,16.70
2022-11-16T04:46:19.551Z,15.80
2022-11-16T04:47:19.543Z,15.60
2022-11-16T04:48:19.543Z,16.80
2022-11-16T04:49:19.584Z,15.70
2022-11-16T04:50:19.518Z,18.10
2022-11-16T04:51:19.507Z,15.90
2022-11-16T04:52:19.512Z,15.90
2022-11-16T04:53:19.504Z,16.70
2022-11-16T04:54:19.491Z,16.80
2022-11-16T04:55:19.531Z,17.20
2022-11-16T04:56:19.477Z,25.20
2022-11-16T04:57:19.468Z,21.90
2022-11-16T04:58:21.332Z,16.40
2022-11-16T04:59:19.460Z,18.40
2022-11-16T05:00:19.486Z,15.70
2022-11-16T05:01:19.503Z,17.50
2022-11-16T05:02:19.445Z,16.10
2022-11-16T05:03:19.430Z,20.40
2022-11-16T05:04:19.809Z,16.10
2022-11-16T05:05:19.425Z,17.20
2022-11-16T05:06:19.412Z,17.90
2022-11-16T05:07:19.452Z,18.60
2022-11-16T05:08:19.389Z,17.40
2022-11-16T05:09:19.394Z,15.50
2022-11-16T05:10:19.379Z,16.80
2022-11-16T05:11:19.392Z,19.90
2022-11-16T05:12:19.375Z,18.40
2022-11-16T05:13:19.376Z,19.10
2022-11-16T05:14:19.355Z,15.80
2022-11-16T05:15:19.345Z,15.50
2022-11-16T05:16:19.386Z,17.80
2022-11-16T05:17:19.363Z,16.40
2022-11-16T05:18:19.331Z,16.90
2022-11-16T05:19:19.311Z,17.90
2022-11-16T05:20:19.304Z,16.80
2022-11-16T05:21:19.292Z,18.60
2022-11-16T05:22:20.313Z,16.40
2022-11-16T05:23:19.300Z,19.80
2022-11-16T05:24:19.285Z,20.10
2022-11-16T05:25:19.275Z,18.20
2022-11-16T05:26:19.269Z,19.70
2022-11-16T05:27:19.278Z,17.50
2022-11-16T05:28:19.269Z,15.60
2022-11-16T05:29:19.252Z,19.00
2022-11-16T05:30:19.255Z,18.80
2022-11-16T05:31:19.225Z,22.30
2022-11-16T05:32:19.233Z,21.10
2022-11-16T05:33:19.245Z,19.50
2022-11-16T05:34:19.254Z,19.10
2022-11-16T05:35:20.170Z,20.20
2022-11-16T05:36:19.209Z,18.30
2022-11-16T05:37:19.194Z,20.30
2022-11-16T05:38:19.209Z,19.30
2022-11-16T05:39:19.240Z,17.40
2022-11-16T05:40:19.176Z,18.90
2022-11-16T05:41:19.180Z,19.50
2022-11-16T05:42:19.167Z,19.00
2022-11-16T05:43:19.157Z,17.80
2022-11-16T05:44:19.173Z,20.50
2022-11-16T05:45:21.140Z,19.60
2022-11-16T05:46:20.177Z,20.00
2022-11-16T05:47:19.166Z,21.90
2022-11-16T05:48:19.134Z,21.90
2022-11-16T05:49:19.139Z,22.20
2022-11-16T05:50:19.110Z,19.70
2022-11-16T05:51:19.102Z,18.80
2022-11-16T05:52:19.134Z,19.50
2022-11-16T05:53:19.099Z,20.90
2022-11-16T05:54:19.136Z,19.00
2022-11-16T05:55:19.183Z,20.00
2022-11-16T05:56:19.103Z,20.00
2022-11-16T05:57:19.091Z,21.60
2022-11-16T05:58:19.086Z,19.70
2022-11-16T05:59:19.077Z,20.90
2022-11-16T06:00:19.057Z,22.30
2022-11-16T06:01:19.046Z,20.20
2022-11-16T06:02:19.031Z,21.40
2022-11-16T06:03:19.081Z,20.50
2022-11-16T06:04:24.187Z,19.00
2022-11-16T06:05:20.998Z,22.20
2022-11-16T06:06:19.000Z,22.30
2022-11-16T06:07:19.051Z,28.50
2022-11-16T06:08:19.004Z,22.90
2022-11-16T06:09:18.992Z,23.00
2022-11-16T06:10:19.013Z,21.10
2022-11-16T06:11:18.965Z,22.30
2022-11-16T06:12:18.956Z,20.80
2022-11-16T06:13:18.988Z,21.00
2022-11-16T06:14:18.967Z,18.90
2022-11-16T06:15:18.988Z,21.20
2022-11-16T06:16:19.170Z,19.70
2022-11-16T06:17:18.932Z,19.40
2022-11-16T06:18:18.940Z,18.20
2022-11-16T06:19:18.919Z,20.50
2022-11-16T06:20:18.959Z,22.80
2022-11-16T06:21:18.896Z,20.40
2022-11-16T06:22:18.896Z,18.60
2022-11-16T06:23:18.893Z,22.00
2022-11-16T06:24:18.903Z,18.30
2022-11-16T06:25:18.912Z,20.10
2022-11-16T06:26:18.873Z,19.90
2022-11-16T06:27:18.859Z,23.80
2022-11-16T06:28:18.889Z,20.70
2022-11-16T06:29:18.844Z,22.30
2022-11-16T06:30:19.857Z,20.00
2022-11-16T06:31:18.842Z,20.40
2022-11-16T06:32:18.856Z,23.80
2022-11-16T06:33:18.816Z,23.20
2022-11-16T06:34:18.805Z,20.20
2022-11-16T06:35:18.815Z,20.30
2022-11-16T06:36:18.792Z,19.70
2022-11-16T06:37:18.805Z,21.50
2022-11-16T06:38:18.840Z,21.70
2022-11-16T06:39:18.776Z,19.70
2022-11-16T06:40:18.783Z,19.60
2022-11-16T06:41:18.756Z,19.80
2022-11-16T06:42:18.760Z,20.00
2022-11-16T06:43:18.753Z,20.00
2022-11-16T06:44:18.747Z,18.10
2022-11-16T06:45:18.735Z,20.10
2022-11-16T06:46:18.736Z,20.70
2022-11-16T06:47:18.740Z,22.00
2022-11-16T06:48:18.943Z,20.20
2022-11-16T06:49:18.704Z,19.30
2022-11-16T06:50:18.701Z,18.60
2022-11-16T06:51:18.692Z,17.40
2022-11-16T06:52:18.691Z,18.20
2022-11-16T06:53:18.708Z,18.90
2022-11-16T06:54:18.691Z,18.60
2022-11-16T06:55:18.666Z,19.10
2022-11-16T06:56:18.655Z,19.20
2022-11-16T06:57:18.643Z,29.00
2022-11-16T06:58:18.683Z,30.30
2022-11-16T06:59:18.659Z,23.40
2022-11-16T07:00:18.624Z,22.10
2022-11-16T07:01:18.675Z,26.90
2022-11-16T07:02:18.623Z,27.60
2022-11-16T07:03:18.608Z,26.40
2022-11-16T07:04:18.715Z,27.10
2022-11-16T07:05:18.615Z,28.90
2022-11-16T07:06:18.640Z,23.30
2022-11-16T07:07:18.755Z,28.00
2022-11-16T07:08:18.575Z,27.70
2022-11-16T07:09:18.581Z,26.00
2022-11-16T07:10:18.567Z,27.30
2022-11-16T07:11:18.551Z,25.30
2022-11-16T07:12:18.583Z,31.40
2022-11-16T07:13:18.543Z,31.90
2022-11-16T07:14:18.546Z,25.80
2022-11-16T07:15:18.556Z,25.70
2022-11-16T07:16:18.527Z,29.30
2022-11-16T07:17:18.540Z,34.00
2022-11-16T07:18:18.531Z,33.20
2022-11-16T07:19:18.508Z,30.40
2022-11-16T07:20:18.504Z,29.90
2022-11-16T07:21:18.532Z,26.70
2022-11-16T07:22:18.487Z,25.20
2022-11-16T07:23:18.501Z,26.30
2022-11-16T07:24:18.475Z,27.20
2022-11-16T07:25:18.467Z,31.30
2022-11-16T07:26:18.486Z,33.10
2022-11-16T07:27:18.467Z,28.70
2022-11-16T07:28:18.473Z,26.30
2022-11-16T07:29:18.444Z,25.30
2022-11-16T07:30:18.445Z,27.70
2022-11-16T07:31:18.447Z,23.80
2022-11-16T07:32:18.443Z,22.30
2022-11-16T07:33:18.451Z,25.10
2022-11-16T07:34:18.403Z,28.40
2022-11-16T07:35:18.411Z,25.20
2022-11-16T07:36:18.486Z,20.90
2022-11-16T07:37:18.384Z,21.80
2022-11-16T07:38:18.449Z,26.90
2022-11-16T07:39:18.401Z,28.90
2022-11-16T07:40:18.397Z,26.20
2022-11-16T07:41:18.355Z,22.00
2022-11-16T07:42:18.362Z,24.00
2022-11-16T07:43:18.355Z,22.90
2022-11-16T07:44:18.462Z,30.70
2022-11-16T07:45:18.423Z,22.60
2022-11-16T07:47:20.322Z,21.40
2022-11-16T07:48:18.323Z,22.30
2022-11-16T07:49:18.335Z,26.50
2022-11-16T07:50:19.192Z,35.60
2022-11-16T07:51:18.310Z,45.00
2022-11-16T07:52:18.406Z,41.80
2022-11-16T07:53:18.279Z,50.00
2022-11-16T07:54:18.279Z,53.10
2022-11-16T07:55:18.267Z,53.20
2022-11-16T07:56:18.271Z,52.60
2022-11-16T07:57:18.271Z,53.40
2022-11-16T07:58:18.252Z,43.70
2022-11-16T07:59:18.239Z,45.80
2022-11-16T08:00:18.229Z,43.40
2022-11-16T08:01:18.303Z,48.40
2022-11-16T08:02:18.213Z,49.80
2022-11-16T08:03:23.333Z,43.20
2022-11-16T08:04:20.219Z,46.90
2022-11-16T08:05:18.203Z,46.80
2022-11-16T08:06:18.214Z,49.20
2022-11-16T08:07:18.224Z,51.20
2022-11-16T08:08:19.186Z,44.40
2022-11-16T08:09:18.175Z,58.70
2022-11-16T08:10:18.215Z,46.00
2022-11-16T08:11:18.174Z,43.40
2022-11-16T08:12:18.151Z,52.60
2022-11-16T08:13:18.150Z,39.20
2022-11-16T08:14:18.165Z,36.00
2022-11-16T08:15:18.137Z,43.70
2022-11-16T08:16:18.159Z,36.70
2022-11-16T08:17:18.137Z,39.30
2022-11-16T08:18:18.120Z,47.70
2022-11-16T08:19:18.116Z,43.10
2022-11-16T08:20:18.125Z,33.90
2022-11-16T08:21:18.084Z,27.60
2022-11-16T08:22:18.106Z,35.90
2022-11-16T08:23:18.097Z,27.40
2022-11-16T08:24:18.182Z,26.70
2022-11-16T08:25:18.057Z,27.70
2022-11-16T08:26:18.084Z,28.60
2022-11-16T08:27:18.066Z,26.50
2022-11-16T08:28:18.077Z,28.00
2022-11-16T08:29:18.037Z,31.10
2022-11-16T08:30:19.048Z,40.60
2022-11-16T08:31:18.029Z,33.60
2022-11-16T08:32:18.004Z,23.60
2022-11-16T08:33:18.051Z,29.80
2022-11-16T08:34:17.996Z,30.90
2022-11-16T08:35:17.996Z,21.50
2022-11-16T08:36:18.008Z,25.00
2022-11-16T08:37:17.977Z,20.90
2022-11-16T08:38:18.015Z,23.60
2022-11-16T08:39:17.996Z,18.90
2022-11-16T08:40:17.966Z,22.80
2022-11-16T08:41:17.990Z,24.60
2022-11-16T08:42:17.963Z,30.00
2022-11-16T08:43:17.947Z,22.90
2022-11-16T08:44:17.960Z,31.70
2022-11-16T08:45:17.978Z,33.00
2022-11-16T08:46:17.926Z,24.10
2022-11-16T08:47:17.920Z,27.70
2022-11-16T08:48:17.951Z,25.20
2022-11-16T08:49:17.907Z,24.70
2022-11-16T08:50:17.913Z,17.50
2022-11-16T08:51:19.532Z,21.10
2022-11-16T08:52:17.915Z,20.00
2022-11-16T08:53:17.892Z,18.00
2022-11-16T08:54:18.894Z,20.50
2022-11-16T08:55:17.879Z,18.20
2022-11-16T08:56:17.878Z,21.60
2022-11-16T08:57:17.871Z,33.50
2022-11-16T08:58:17.878Z,39.60
2022-11-16T08:59:17.831Z,21.60
2022-11-16T09:00:17.846Z,24.20
2022-11-16T09:01:17.997Z,19.70
2022-11-16T09:02:17.826Z,25.50
2022-11-16T09:03:17.817Z,29.10
2022-11-16T09:04:17.854Z,26.00
2022-11-16T09:05:17.827Z,18.90
2022-11-16T09:06:17.826Z,23.50
2022-11-16T09:07:17.839Z,20.90
2022-11-16T09:08:17.787Z,26.10
2022-11-16T09:09:17.786Z,17.30
2022-11-16T09:10:17.795Z,22.30
2022-11-16T09:11:17.823Z,21.50
2022-11-16T09:12:17.822Z,18.50
2022-11-16T09:13:17.789Z,20.30
2022-11-16T09:14:17.754Z,18.60
2022-11-16T09:15:17.745Z,21.40
2022-11-16T09:16:17.767Z,23.70
2022-11-16T09:17:22.935Z,28.00
2022-11-16T09:18:19.733Z,33.10
2022-11-16T09:19:17.758Z,48.90
2022-11-16T09:20:17.712Z,51.70
2022-11-16T09:21:17.737Z,110.50
2022-11-16T09:22:17.754Z,29.10
2022-11-16T09:23:23.825Z,37.90
2022-11-16T09:24:19.720Z,28.20
2022-11-16T09:25:17.708Z,32.20
2022-11-16T09:26:17.670Z,25.70
2022-11-16T09:27:17.680Z,51.40
2022-11-16T09:28:17.682Z,21.00
2022-11-16T09:29:17.664Z,24.60
2022-11-16T09:30:17.641Z,61.20
2022-11-16T09:31:22.978Z,37.40
2022-11-16T09:32:19.638Z,22.00
2022-11-16T09:33:17.621Z,17.90
2022-11-16T09:34:17.639Z,18.20
2022-11-16T09:35:17.611Z,24.30
2022-11-16T09:36:17.669Z,20.30
2022-11-16T09:37:17.630Z,22.10
2022-11-16T09:38:24.202Z,22.80
2022-11-16T09:39:30.591Z,18.30
2022-11-16T09:40:19.586Z,20.00
2022-11-16T09:41:17.566Z,20.50
2022-11-16T09:42:17.575Z,20.50
2022-11-16T09:43:17.549Z,19.80
2022-11-16T09:44:17.651Z,19.80
2022-11-16T09:45:17.545Z,24.30
2022-11-16T09:46:17.534Z,23.00
2022-11-16T09:47:17.549Z,20.80
2022-11-16T09:48:17.540Z,20.40
2022-11-16T09:49:18.038Z,18.70
2022-11-16T09:50:17.509Z,19.00
2022-11-16T09:51:17.513Z,18.50
2022-11-16T09:52:17.532Z,20.10
2022-11-16T09:53:17.488Z,22.80
2022-11-16T09:54:17.497Z,20.90
2022-11-16T09:55:17.478Z,20.60
2022-11-16T09:56:21.943Z,18.80
2022-11-16T09:57:18.512Z,18.80
2022-11-16T09:58:17.495Z,20.60
2022-11-16T09:59:18.381Z,25.50
2022-11-16T10:00:18.534Z,19.40
2022-11-16T10:01:17.496Z,25.70
2022-11-16T10:02:17.444Z,25.40
2022-11-16T10:03:17.431Z,22.70
2022-11-16T10:04:17.445Z,21.60
2022-11-16T10:05:17.413Z,20.70
2022-11-16T10:06:17.404Z,21.80
2022-11-16T10:07:17.487Z,25.90
2022-11-16T10:08:17.443Z,20.60
2022-11-16T10:09:17.383Z,18.80
2022-11-16T10:10:17.375Z,15.00
2022-11-16T10:11:17.408Z,16.80
2022-11-16T10:12:17.396Z,18.70
2022-11-16T10:13:17.353Z,18.80
2022-11-16T10:14:17.409Z,19.00
2022-11-16T10:15:17.338Z,16.30
2022-11-16T10:16:18.449Z,19.40
2022-11-16T10:17:17.345Z,17.20
2022-11-16T10:18:17.401Z,17.70
2022-11-16T10:19:17.333Z,17.10
2022-11-16T10:20:17.349Z,17.60
2022-11-16T10:21:17.304Z,16.30
2022-11-16T10:22:18.183Z,19.00
2022-11-16T10:23:17.320Z,17.90
2022-11-16T10:24:17.317Z,15.80
2022-11-16T10:25:17.288Z,19.40
2022-11-16T10:26:17.344Z,17.90
2022-11-16T10:27:21.844Z,16.80
2022-11-16T10:28:19.294Z,15.90
2022-11-16T10:29:17.253Z,16.00
2022-11-16T10:30:17.258Z,15.60
2022-11-16T10:31:17.263Z,18.50
2022-11-16T10:32:17.289Z,17.20
2022-11-16T10:33:17.229Z,22.00
2022-11-16T10:34:17.218Z,21.40
2022-11-16T10:35:17.245Z,18.30
2022-11-16T10:36:17.213Z,18.70
2022-11-16T10:37:17.200Z,16.80
2022-11-16T10:38:17.227Z,35.90
2022-11-16T10:39:17.197Z,36.10
2022-11-16T10:40:17.175Z,25.00
2022-11-16T10:41:17.216Z,19.90
2022-11-16T10:42:18.120Z,21.00
2022-11-16T10:43:17.167Z,19.60
2022-11-16T10:44:17.187Z,20.00
2022-11-16T10:45:17.151Z,18.80
2022-11-16T10:46:17.173Z,17.90
2022-11-16T10:47:17.132Z,15.80
2022-11-16T10:48:17.157Z,14.60
2022-11-16T10:49:17.147Z,13.00
2022-11-16T10:50:17.119Z,13.60
2022-11-16T10:51:17.126Z,15.00
2022-11-16T10:52:17.117Z,14.80
2022-11-16T10:53:17.126Z,16.80
2022-11-16T10:54:17.109Z,14.90
2022-11-16T10:55:17.075Z,14.60
2022-11-16T10:56:17.107Z,14.70
2022-11-16T10:57:17.076Z,13.90
2022-11-16T10:58:17.077Z,15.30
2022-11-16T10:59:17.059Z,15.60
2022-11-16T11:00:22.014Z,14.80
2022-11-16T11:01:19.154Z,14.80
2022-11-16T11:02:17.046Z,14.80
2022-11-16T11:03:18.051Z,14.90
2022-11-16T11:04:17.144Z,15.60
2022-11-16T11:05:17.014Z,14.80
2022-11-16T11:06:17.012Z,15.20
2022-11-16T11:07:17.059Z,13.20
2022-11-16T11:08:17.004Z,13.60
2022-11-16T11:09:17.011Z,14.90
2022-11-16T11:10:16.997Z,12.30
2022-11-16T11:11:17.019Z,12.80
2022-11-16T11:12:16.975Z,11.80
2022-11-16T11:13:17.006Z,12.20
2022-11-16T11:14:16.972Z,11.40
2022-11-16T11:15:21.323Z,9.90
2022-11-16T11:16:17.957Z,10.70
2022-11-16T11:17:16.951Z,9.50
2022-11-16T11:18:16.972Z,11.10
2022-11-16T11:19:16.944Z,9.80
2022-11-16T11:20:17.227Z,9.50
2022-11-16T11:21:16.929Z,8.90
2022-11-16T11:22:16.925Z,8.40
2022-11-16T11:23:16.931Z,11.00
2022-11-16T11:24:43.462Z,9.50
2022-11-16T11:25:18.960Z,9.40
2022-11-16T11:26:16.908Z,9.40
2022-11-16T11:27:16.958Z,9.80
2022-11-16T11:28:16.897Z,9.60
2022-11-16T11:29:16.912Z,8.20
2022-11-16T11:30:17.002Z,8.10
2022-11-16T11:31:16.894Z,11.10
2022-11-16T11:32:20.951Z,9.80
2022-11-16T11:33:18.875Z,9.60
2022-11-16T11:34:16.909Z,8.10
2022-11-16T11:35:16.853Z,7.70
2022-11-16T11:36:16.866Z,10.20
2022-11-16T11:37:16.851Z,9.20
2022-11-16T11:38:16.836Z,6.60
2022-11-16T11:39:16.889Z,7.20
2022-11-16T11:40:16.809Z,7.70
2022-11-16T11:41:16.813Z,8.00
2022-11-16T11:42:16.836Z,7.20
2022-11-16T11:43:18.978Z,6.70
2022-11-16T11:44:18.702Z,6.10
2022-11-16T11:45:16.800Z,7.20
2022-11-16T11:46:16.776Z,6.30
2022-11-16T11:47:55.538Z,6.10
2022-11-16T11:48:18.800Z,6.30
2022-11-16T11:49:16.792Z,6.00
2022-11-16T11:50:16.805Z,6.30
2022-11-16T11:51:16.785Z,4.70
2022-11-16T11:52:16.765Z,5.30
2022-11-16T11:53:16.757Z,5.60
2022-11-16T11:54:16.744Z,7.40
2022-11-16T11:55:16.732Z,4.10
2022-11-16T11:56:16.727Z,6.20
2022-11-16T11:57:16.724Z,6.50
2022-11-16T11:58:16.710Z,3.90
2022-11-16T11:59:16.712Z,5.80
2022-11-16T12:00:16.688Z,4.30
2022-11-16T12:01:20.850Z,5.30
2022-11-16T12:02:18.720Z,6.20
2022-11-16T12:03:16.722Z,5.70
2022-11-16T12:04:16.660Z,5.60
2022-11-16T12:05:17.664Z,5.60
2022-11-16T12:06:16.684Z,5.50
2022-11-16T12:07:16.716Z,4.70
2022-11-16T12:08:16.656Z,4.70
2022-11-16T12:09:16.641Z,3.10
2022-11-16T12:10:16.637Z,3.30
2022-11-16T12:11:16.628Z,2.90
2022-11-16T12:12:16.664Z,5.30
2022-11-16T12:13:16.612Z,5.00
2022-11-16T12:14:16.598Z,3.70
2022-11-16T12:15:16.604Z,4.60
2022-11-16T12:16:16.585Z,4.10
2022-11-16T12:17:16.609Z,3.50
2022-11-16T12:18:16.577Z,3.50
2022-11-16T12:19:16.576Z,3.60
2022-11-16T12:20:17.581Z,4.00
2022-11-16T12:21:16.589Z,3.00
2022-11-16T12:22:16.548Z,3.90
2022-11-16T12:23:16.548Z,4.00
2022-11-16T12:24:16.660Z,4.10
2022-11-16T12:25:16.539Z,5.70
2022-11-16T12:26:16.542Z,4.10
2022-11-16T12:27:16.537Z,5.60
2022-11-16T12:28:16.524Z,4.60
2022-11-16T12:29:16.511Z,3.30
2022-11-16T12:30:16.523Z,4.40
2022-11-16T12:31:16.483Z,6.10
2022-11-16T12:32:16.493Z,3.20
2022-11-16T12:33:16.515Z,4.60
2022-11-16T12:34:16.505Z,3.30
2022-11-16T12:35:16.465Z,4.60
2022-11-16T12:36:16.464Z,5.50
2022-11-16T12:37:16.471Z,3.90
2022-11-16T12:38:19.459Z,4.50
2022-11-16T12:39:17.452Z,5.30
2022-11-16T12:40:16.528Z,6.00
2022-11-16T12:41:16.448Z,5.50
2022-11-16T12:42:16.415Z,4.40
2022-11-16T12:43:17.434Z,6.40
2022-11-16T12:44:16.436Z,5.40
2022-11-16T12:45:16.418Z,6.80
2022-11-16T12:46:17.106Z,5.80
2022-11-16T12:47:16.403Z,4.70
2022-11-16T12:48:16.415Z,4.10
2022-11-16T12:49:16.407Z,3.80
2022-11-16T12:50:16.408Z,4.20
2022-11-16T12:51:16.361Z,2.80
2022-11-16T12:52:16.381Z,2.80
2022-11-16T12:53:16.388Z,3.60
2022-11-16T12:54:16.415Z,6.90
2022-11-16T12:55:25.941Z,4.00
2022-11-16T12:56:18.463Z,6.60
2022-11-16T12:57:17.335Z,4.60